Bookmark and Share
Track history (hours):
 

Wawasan Ruby

Last reported at 2014-Mar-18 08:07 UTC. Time now 2014-Apr-18 08:15 UTC.
Position N 34°49' E 140°14'.
Warning: this ship's position is 31 days out of date.

Length 146 m; draft 10.6 m.

Type: Ship (hazmat cat C). MMSI: 355619000.

NotesDate/timePositionNaut miles runAvg speedWind from/ knotsBaromVisibWave heightAir tempDewpointWater temp
2014-Mar-18 08:07N 34°49' E 140°14'912.9
2014-Mar-18 07:25N 34°49' E 140°03'1212.5
2014-Mar-18 06:29N 34°51' E 139°49'1010.5
2014-Mar-18 05:33N 34°58' E 139°41'1110.9
2014-Mar-18 04:33N 35°09' E 139°45'9 8.9
2014-Mar-18 03:33N 35°18' E 139°44'5 5.4
2014-Mar-18 02:33N 35°23' E 139°41'0 0.1
2014-Mar-18 01:30N 35°23' E 139°41'0 0.1
2014-Mar-18 00:33N 35°22' E 139°41'0 0.0
2014-Mar-17 23:33N 35°22' E 139°41'0 0.0
2014-Mar-17 22:33N 35°23' E 139°41'0 0.1
2014-Mar-17 21:33N 35°23' E 139°41'0 0.1
2014-Mar-17 20:33N 35°22' E 139°41'0 0.0
2014-Mar-17 19:33N 35°23' E 139°41'0 0.0
2014-Mar-17 18:33N 35°23' E 139°41'0 0.0
2014-Mar-17 17:33N 35°23' E 139°41'0 0.0
2014-Mar-17 16:30N 35°23' E 139°41'0 0.0
2014-Mar-17 15:33N 35°22' E 139°41'0 0.1
2014-Mar-17 14:33N 35°22' E 139°41'0 0.1
2014-Mar-17 13:33N 35°22' E 139°41'0 0.0
2014-Mar-17 12:34N 35°22' E 139°41'8 7.6
2014-Mar-17 11:33N 35°16' E 139°46'1010.0
2014-Mar-17 10:34N 35°06' E 139°46'1413.5
2014-Mar-17 09:33N 34°54' E 139°39'23610.7
2014-Mar-16 11:33N 34°06' E 134°59'1211.2
2014-Mar-16 10:31N 34°17' E 134°58'1212.0
2014-Mar-16 09:33N 34°27' E 135°06'1313.1
2014-Mar-16 08:33N 34°37' E 135°16'3 2.9
2014-Mar-16 07:29N 34°40' E 135°18'0 0.0
2014-Mar-16 06:23N 34°40' E 135°18'0 0.0
2014-Mar-16 05:29N 34°40' E 135°18'0 0.0
2014-Mar-16 04:29N 34°40' E 135°18'0 0.2
2014-Mar-16 03:33N 34°40' E 135°18'4 3.7
2014-Mar-16 02:33N 34°36' E 135°18'1313.4
2014-Mar-16 01:33N 34°25' E 135°07'1313.1
2014-Mar-16 00:33N 34°14' E 134°59'1110.5
2014-Mar-15 23:33N 34°04' E 134°59'205 8.8
2014-Mar-15 00:18N 34°01' E 130°52'2 0.1
2014-Mar-14 08:15N 34°02' E 130°50'  

Dump ship's entire track history

sailing weather and tide predictions

Wawasan Ruby — 3EVU7 — position and weather